sensor_id;sensor_type;location;lat;lon;timestamp;P1;durP1;ratioP1;P2;durP2;ratioP2
679;SDS011;322;48.846;9.230;2023-04-03T00:00:38;5.97;;;2.75;;
679;SDS011;322;48.846;9.230;2023-04-03T00:03:05;4.57;;;3.38;;
679;SDS011;322;48.846;9.230;2023-04-03T00:05:32;3.03;;;2.78;;
679;SDS011;322;48.846;9.230;2023-04-03T00:07:59;3.83;;;2.97;;
679;SDS011;322;48.846;9.230;2023-04-03T00:10:28;4.03;;;3.63;;
679;SDS011;322;48.846;9.230;2023-04-03T00:12:55;3.73;;;3.43;;
679;SDS011;322;48.846;9.230;2023-04-03T00:15:22;4.00;;;2.90;;
679;SDS011;322;48.846;9.230;2023-04-03T00:17:49;3.40;;;3.10;;
679;SDS011;322;48.846;9.230;2023-04-03T00:20:16;3.53;;;3.20;;
679;SDS011;322;48.846;9.230;2023-04-03T00:22:42;6.03;;;3.60;;
679;SDS011;322;48.846;9.230;2023-04-03T00:25:09;3.43;;;2.80;;
679;SDS011;322;48.846;9.230;2023-04-03T00:27:38;3.33;;;3.03;;
679;SDS011;322;48.846;9.230;2023-04-03T00:30:05;6.77;;;3.50;;
679;SDS011;322;48.846;9.230;2023-04-03T00:32:36;4.03;;;3.20;;
679;SDS011;322;48.846;9.230;2023-04-03T00:35:02;3.63;;;3.33;;
679;SDS011;322;48.846;9.230;2023-04-03T00:37:30;3.60;;;3.30;;
679;SDS011;322;48.846;9.230;2023-04-03T00:39:56;5.30;;;3.63;;
679;SDS011;322;48.846;9.230;2023-04-03T00:42:23;3.47;;;3.20;;
679;SDS011;322;48.846;9.230;2023-04-03T00:47:52;2.70;;;2.50;;
679;SDS011;322;48.846;9.230;2023-04-03T00:50:19;4.63;;;3.50;;
679;SDS011;322;48.846;9.230;2023-04-03T00:52:46;4.30;;;3.47;;
679;SDS011;322;48.846;9.230;2023-04-03T00:55:14;6.03;;;4.53;;
679;SDS011;322;48.846;9.230;2023-04-03T00:57:41;3.20;;;2.90;;
679;SDS011;322;48.846;9.230;2023-04-03T01:00:10;5.50;;;3.07;;
679;SDS011;322;48.846;9.230;2023-04-03T01:02:40;2.73;;;2.53;;
679;SDS011;322;48.846;9.230;2023-04-03T01:05:08;4.10;;;3.40;;
679;SDS011;322;48.846;9.230;2023-04-03T01:07:35;4.83;;;3.17;;
679;SDS011;322;48.846;9.230;2023-04-03T01:10:03;5.40;;;3.10;;
679;SDS011;322;48.846;9.230;2023-04-03T01:12:33;3.90;;;3.10;;
679;SDS011;322;48.846;9.230;2023-04-03T01:15:02;4.27;;;3.50;;
679;SDS011;322;48.846;9.230;2023-04-03T01:17:33;3.50;;;2.90;;
679;SDS011;322;48.846;9.230;2023-04-03T01:20:12;4.07;;;3.35;;
679;SDS011;322;48.846;9.230;2023-04-03T01:23:03;3.53;;;3.17;;
679;SDS011;322;48.846;9.230;2023-04-03T01:25:37;3.33;;;3.03;;
679;SDS011;322;48.846;9.230;2023-04-03T01:28:06;3.77;;;3.13;;
679;SDS011;322;48.846;9.230;2023-04-03T01:30:36;3.53;;;3.23;;
679;SDS011;322;48.846;9.230;2023-04-03T01:33:10;3.33;;;3.03;;
679;SDS011;322;48.846;9.230;2023-04-03T01:35:37;4.93;;;3.70;;
679;SDS011;322;48.846;9.230;2023-04-03T01:38:04;5.03;;;3.90;;
679;SDS011;322;48.846;9.230;2023-04-03T01:40:31;3.77;;;3.40;;
679;SDS011;322;48.846;9.230;2023-04-03T01:42:58;5.10;;;3.60;;
679;SDS011;322;48.846;9.230;2023-04-03T01:45:24;3.63;;;3.30;;
679;SDS011;322;48.846;9.230;2023-04-03T01:47:51;4.10;;;3.50;;
679;SDS011;322;48.846;9.230;2023-04-03T01:50:19;3.70;;;3.40;;
679;SDS011;322;48.846;9.230;2023-04-03T01:52:46;3.87;;;3.27;;
679;SDS011;322;48.846;9.230;2023-04-03T01:55:13;6.27;;;3.57;;
679;SDS011;322;48.846;9.230;2023-04-03T01:57:40;5.73;;;3.93;;
679;SDS011;322;48.846;9.230;2023-04-03T02:00:07;4.10;;;3.70;;
679;SDS011;322;48.846;9.230;2023-04-03T02:02:35;3.53;;;3.23;;
679;SDS011;322;48.846;9.230;2023-04-03T02:05:02;4.15;;;3.10;;
679;SDS011;322;48.846;9.230;2023-04-03T02:07:30;6.43;;;3.33;;
679;SDS011;322;48.846;9.230;2023-04-03T02:09:57;4.40;;;3.90;;
679;SDS011;322;48.846;9.230;2023-04-03T02:12:23;4.50;;;3.73;;
679;SDS011;322;48.846;9.230;2023-04-03T02:14:50;4.00;;;3.70;;
679;SDS011;322;48.846;9.230;2023-04-03T02:17:17;5.70;;;3.60;;
679;SDS011;322;48.846;9.230;2023-04-03T02:19:44;5.20;;;4.00;;
679;SDS011;322;48.846;9.230;2023-04-03T02:22:11;4.38;;;3.97;;
679;SDS011;322;48.846;9.230;2023-04-03T02:24:39;4.80;;;4.30;;
679;SDS011;322;48.846;9.230;2023-04-03T02:27:06;6.23;;;3.77;;
679;SDS011;322;48.846;9.230;2023-04-03T02:29:33;5.30;;;4.97;;
679;SDS011;322;48.846;9.230;2023-04-03T02:31:59;4.30;;;3.30;;
679;SDS011;322;48.846;9.230;2023-04-03T02:34:26;3.60;;;3.25;;
679;SDS011;322;48.846;9.230;2023-04-03T02:36:53;4.47;;;3.45;;
679;SDS011;322;48.846;9.230;2023-04-03T02:39:20;3.13;;;2.83;;
679;SDS011;322;48.846;9.230;2023-04-03T02:41:48;3.50;;;3.17;;
679;SDS011;322;48.846;9.230;2023-04-03T02:44:15;4.90;;;3.63;;
679;SDS011;322;48.846;9.230;2023-04-03T02:46:42;3.00;;;2.80;;
679;SDS011;322;48.846;9.230;2023-04-03T02:49:09;3.70;;;3.10;;
679;SDS011;322;48.846;9.230;2023-04-03T02:51:36;5.30;;;3.13;;
679;SDS011;322;48.846;9.230;2023-04-03T02:54:03;3.75;;;3.17;;
679;SDS011;322;48.846;9.230;2023-04-03T02:56:30;4.35;;;3.10;;
679;SDS011;322;48.846;9.230;2023-04-03T02:58:58;7.80;;;3.20;;
679;SDS011;322;48.846;9.230;2023-04-03T03:01:24;4.90;;;3.67;;
679;SDS011;322;48.846;9.230;2023-04-03T03:03:53;3.35;;;3.05;;
679;SDS011;322;48.846;9.230;2023-04-03T03:06:20;3.85;;;3.45;;
679;SDS011;322;48.846;9.230;2023-04-03T03:08:46;3.00;;;2.70;;
679;SDS011;322;48.846;9.230;2023-04-03T03:11:13;5.20;;;3.57;;
679;SDS011;322;48.846;9.230;2023-04-03T03:13:40;3.88;;;2.95;;
679;SDS011;322;48.846;9.230;2023-04-03T03:16:08;4.80;;;3.03;;
679;SDS011;322;48.846;9.230;2023-04-03T03:18:35;3.47;;;3.10;;
679;SDS011;322;48.846;9.230;2023-04-03T03:21:02;4.13;;;3.10;;
679;SDS011;322;48.846;9.230;2023-04-03T03:23:30;3.93;;;3.53;;
679;SDS011;322;48.846;9.230;2023-04-03T03:25:58;3.03;;;2.53;;
679;SDS011;322;48.846;9.230;2023-04-03T03:28:26;3.55;;;3.03;;
679;SDS011;322;48.846;9.230;2023-04-03T03:30:54;3.70;;;3.40;;
679;SDS011;322;48.846;9.230;2023-04-03T03:33:22;4.60;;;2.80;;
679;SDS011;322;48.846;9.230;2023-04-03T03:35:49;3.80;;;3.10;;
679;SDS011;322;48.846;9.230;2023-04-03T03:38:16;4.00;;;3.60;;
679;SDS011;322;48.846;9.230;2023-04-03T03:40:42;4.10;;;3.27;;
679;SDS011;322;48.846;9.230;2023-04-03T03:43:10;3.23;;;2.93;;
679;SDS011;322;48.846;9.230;2023-04-03T03:45:36;3.17;;;2.60;;
679;SDS011;322;48.846;9.230;2023-04-03T03:48:03;5.77;;;3.23;;
679;SDS011;322;48.846;9.230;2023-04-03T03:50:32;3.03;;;2.83;;
679;SDS011;322;48.846;9.230;2023-04-03T03:52:59;2.97;;;2.70;;
679;SDS011;322;48.846;9.230;2023-04-03T03:55:25;3.07;;;2.77;;
679;SDS011;322;48.846;9.230;2023-04-03T03:57:52;8.50;;;3.23;;
679;SDS011;322;48.846;9.230;2023-04-03T04:00:19;3.37;;;3.03;;
679;SDS011;322;48.846;9.230;2023-04-03T04:02:46;4.63;;;4.00;;
679;SDS011;322;48.846;9.230;2023-04-03T04:05:13;3.30;;;3.00;;
679;SDS011;322;48.846;9.230;2023-04-03T04:07:41;3.50;;;3.20;;
679;SDS011;322;48.846;9.230;2023-04-03T04:10:08;3.60;;;3.30;;
679;SDS011;322;48.846;9.230;2023-04-03T04:12:35;3.20;;;2.83;;
679;SDS011;322;48.846;9.230;2023-04-03T04:15:02;4.40;;;3.63;;
679;SDS011;322;48.846;9.230;2023-04-03T04:17:29;3.17;;;2.80;;
679;SDS011;322;48.846;9.230;2023-04-03T04:19:56;3.23;;;2.67;;
679;SDS011;322;48.846;9.230;2023-04-03T04:22:23;3.93;;;3.30;;
679;SDS011;322;48.846;9.230;2023-04-03T04:24:51;5.20;;;2.90;;
679;SDS011;322;48.846;9.230;2023-04-03T04:27:18;5.43;;;3.00;;
679;SDS011;322;48.846;9.230;2023-04-03T04:29:45;4.47;;;3.27;;
679;SDS011;322;48.846;9.230;2023-04-03T04:32:11;7.97;;;3.57;;
679;SDS011;322;48.846;9.230;2023-04-03T04:34:38;5.30;;;2.97;;
679;SDS011;322;48.846;9.230;2023-04-03T04:37:05;3.13;;;2.80;;
679;SDS011;322;48.846;9.230;2023-04-03T04:39:32;3.70;;;2.50;;
679;SDS011;322;48.846;9.230;2023-04-03T04:42:00;3.10;;;2.47;;
679;SDS011;322;48.846;9.230;2023-04-03T04:44:26;3.33;;;2.93;;
679;SDS011;322;48.846;9.230;2023-04-03T04:46:53;5.80;;;2.70;;
679;SDS011;322;48.846;9.230;2023-04-03T04:49:20;3.50;;;2.63;;
679;SDS011;322;48.846;9.230;2023-04-03T04:51:47;4.67;;;3.60;;
679;SDS011;322;48.846;9.230;2023-04-03T04:54:13;3.20;;;2.90;;
679;SDS011;322;48.846;9.230;2023-04-03T04:56:40;3.90;;;2.80;;
679;SDS011;322;48.846;9.230;2023-04-03T04:59:08;3.97;;;3.05;;
679;SDS011;322;48.846;9.230;2023-04-03T05:01:35;5.47;;;3.88;;
679;SDS011;322;48.846;9.230;2023-04-03T05:04:02;4.10;;;3.70;;
679;SDS011;322;48.846;9.230;2023-04-03T05:06:29;2.90;;;2.70;;
679;SDS011;322;48.846;9.230;2023-04-03T05:08:56;3.45;;;2.72;;
679;SDS011;322;48.846;9.230;2023-04-03T05:11:23;4.78;;;3.00;;
679;SDS011;322;48.846;9.230;2023-04-03T05:13:50;6.25;;;3.63;;
679;SDS011;322;48.846;9.230;2023-04-03T05:16:18;3.97;;;3.00;;
679;SDS011;322;48.846;9.230;2023-04-03T05:18:45;4.05;;;2.78;;
679;SDS011;322;48.846;9.230;2023-04-03T05:21:12;3.38;;;2.65;;
679;SDS011;322;48.846;9.230;2023-04-03T05:23:39;6.28;;;3.30;;
679;SDS011;322;48.846;9.230;2023-04-03T05:26:06;5.65;;;3.28;;
679;SDS011;322;48.846;9.230;2023-04-03T05:28:33;4.43;;;3.38;;
679;SDS011;322;48.846;9.230;2023-04-03T05:31:00;4.00;;;2.80;;
679;SDS011;322;48.846;9.230;2023-04-03T05:33:28;4.65;;;3.40;;
679;SDS011;322;48.846;9.230;2023-04-03T05:35:55;3.25;;;2.78;;
679;SDS011;322;48.846;9.230;2023-04-03T05:38:21;4.00;;;2.95;;
679;SDS011;322;48.846;9.230;2023-04-03T05:40:48;3.28;;;2.97;;
679;SDS011;322;48.846;9.230;2023-04-03T05:43:15;5.78;;;2.47;;
679;SDS011;322;48.846;9.230;2023-04-03T05:45:42;6.88;;;3.20;;
679;SDS011;322;48.846;9.230;2023-04-03T05:48:09;2.45;;;2.25;;
679;SDS011;322;48.846;9.230;2023-04-03T05:50:38;4.68;;;2.75;;
679;SDS011;322;48.846;9.230;2023-04-03T05:53:07;4.03;;;3.38;;
679;SDS011;322;48.846;9.230;2023-04-03T05:55:40;3.95;;;3.30;;
679;SDS011;322;48.846;9.230;2023-04-03T05:58:08;3.25;;;2.80;;
679;SDS011;322;48.846;9.230;2023-04-03T06:00:35;7.38;;;3.15;;
679;SDS011;322;48.846;9.230;2023-04-03T06:03:02;6.18;;;2.53;;
679;SDS011;322;48.846;9.230;2023-04-03T06:05:29;3.20;;;2.60;;
679;SDS011;322;48.846;9.230;2023-04-03T06:07:57;3.65;;;2.95;;
679;SDS011;322;48.846;9.230;2023-04-03T06:10:24;3.13;;;2.70;;
679;SDS011;322;48.846;9.230;2023-04-03T06:12:51;3.67;;;3.20;;
679;SDS011;322;48.846;9.230;2023-04-03T06:15:17;3.53;;;2.70;;
679;SDS011;322;48.846;9.230;2023-04-03T06:17:45;3.70;;;3.30;;
679;SDS011;322;48.846;9.230;2023-04-03T06:20:12;4.55;;;3.65;;
679;SDS011;322;48.846;9.230;2023-04-03T06:22:39;4.00;;;2.90;;
679;SDS011;322;48.846;9.230;2023-04-03T06:25:08;3.57;;;3.00;;
679;SDS011;322;48.846;9.230;2023-04-03T06:27:35;2.60;;;2.40;;
679;SDS011;322;48.846;9.230;2023-04-03T06:30:03;3.87;;;2.80;;
679;SDS011;322;48.846;9.230;2023-04-03T06:32:30;4.13;;;2.93;;
679;SDS011;322;48.846;9.230;2023-04-03T06:34:57;3.20;;;2.67;;
679;SDS011;322;48.846;9.230;2023-04-03T06:37:24;4.50;;;2.83;;
679;SDS011;322;48.846;9.230;2023-04-03T06:39:53;3.30;;;2.60;;
679;SDS011;322;48.846;9.230;2023-04-03T06:42:21;3.60;;;3.30;;
679;SDS011;322;48.846;9.230;2023-04-03T06:44:47;5.43;;;2.87;;
679;SDS011;322;48.846;9.230;2023-04-03T06:47:15;3.60;;;3.10;;
679;SDS011;322;48.846;9.230;2023-04-03T06:49:42;4.27;;;3.17;;
679;SDS011;322;48.846;9.230;2023-04-03T06:52:09;3.20;;;2.90;;
679;SDS011;322;48.846;9.230;2023-04-03T06:54:37;3.40;;;2.77;;
679;SDS011;322;48.846;9.230;2023-04-03T06:57:07;4.67;;;3.13;;
679;SDS011;322;48.846;9.230;2023-04-03T06:59:35;3.63;;;2.83;;
679;SDS011;322;48.846;9.230;2023-04-03T07:02:02;4.53;;;3.60;;
679;SDS011;322;48.846;9.230;2023-04-03T07:04:29;3.70;;;3.17;;
679;SDS011;322;48.846;9.230;2023-04-03T07:06:56;2.70;;;2.50;;
679;SDS011;322;48.846;9.230;2023-04-03T07:09:23;6.00;;;5.10;;
679;SDS011;322;48.846;9.230;2023-04-03T07:11:49;3.33;;;3.00;;
679;SDS011;322;48.846;9.230;2023-04-03T07:14:16;3.20;;;2.90;;
679;SDS011;322;48.846;9.230;2023-04-03T07:16:44;3.47;;;2.50;;
679;SDS011;322;48.846;9.230;2023-04-03T07:19:11;3.73;;;3.30;;
679;SDS011;322;48.846;9.230;2023-04-03T07:21:38;5.17;;;3.00;;
679;SDS011;322;48.846;9.230;2023-04-03T07:24:06;4.17;;;3.17;;
679;SDS011;322;48.846;9.230;2023-04-03T07:26:33;3.47;;;3.17;;
679;SDS011;322;48.846;9.230;2023-04-03T07:29:00;4.07;;;2.87;;
679;SDS011;322;48.846;9.230;2023-04-03T07:31:27;5.13;;;3.13;;
679;SDS011;322;48.846;9.230;2023-04-03T07:33:55;6.70;;;3.07;;
679;SDS011;322;48.846;9.230;2023-04-03T07:36:22;3.63;;;3.20;;
679;SDS011;322;48.846;9.230;2023-04-03T07:38:49;3.30;;;2.97;;
679;SDS011;322;48.846;9.230;2023-04-03T07:41:16;3.80;;;2.77;;
679;SDS011;322;48.846;9.230;2023-04-03T07:43:47;4.20;;;3.17;;
679;SDS011;322;48.846;9.230;2023-04-03T07:46:15;3.97;;;3.37;;
679;SDS011;322;48.846;9.230;2023-04-03T07:48:42;3.57;;;3.00;;
679;SDS011;322;48.846;9.230;2023-04-03T07:51:11;3.33;;;3.03;;
679;SDS011;322;48.846;9.230;2023-04-03T07:53:38;4.77;;;3.30;;
679;SDS011;322;48.846;9.230;2023-04-03T07:56:05;3.33;;;2.83;;
679;SDS011;322;48.846;9.230;2023-04-03T07:58:33;2.93;;;2.70;;
679;SDS011;322;48.846;9.230;2023-04-03T08:00:59;3.37;;;3.07;;
679;SDS011;322;48.846;9.230;2023-04-03T08:03:26;3.60;;;3.00;;
679;SDS011;322;48.846;9.230;2023-04-03T08:05:53;3.03;;;2.73;;
679;SDS011;322;48.846;9.230;2023-04-03T08:08:22;3.97;;;3.47;;
679;SDS011;322;48.846;9.230;2023-04-03T08:10:49;3.47;;;3.10;;
679;SDS011;322;48.846;9.230;2023-04-03T08:13:17;6.50;;;2.87;;
679;SDS011;322;48.846;9.230;2023-04-03T08:15:44;3.43;;;2.87;;
679;SDS011;322;48.846;9.230;2023-04-03T08:18:11;5.53;;;3.30;;
679;SDS011;322;48.846;9.230;2023-04-03T08:20:39;3.37;;;3.07;;
679;SDS011;322;48.846;9.230;2023-04-03T08:23:06;4.73;;;2.73;;
679;SDS011;322;48.846;9.230;2023-04-03T08:25:37;3.90;;;2.87;;
679;SDS011;322;48.846;9.230;2023-04-03T08:28:04;5.50;;;2.77;;
679;SDS011;322;48.846;9.230;2023-04-03T08:30:31;4.43;;;3.10;;
679;SDS011;322;48.846;9.230;2023-04-03T08:32:59;7.77;;;3.40;;
679;SDS011;322;48.846;9.230;2023-04-03T08:35:26;3.67;;;2.17;;
679;SDS011;322;48.846;9.230;2023-04-03T08:37:53;5.10;;;3.07;;
679;SDS011;322;48.846;9.230;2023-04-03T08:40:20;5.17;;;3.33;;
679;SDS011;322;48.846;9.230;2023-04-03T08:42:53;4.23;;;2.90;;
679;SDS011;322;48.846;9.230;2023-04-03T08:45:33;3.00;;;2.80;;
679;SDS011;322;48.846;9.230;2023-04-03T08:48:10;4.50;;;2.77;;
679;SDS011;322;48.846;9.230;2023-04-03T08:50:41;4.03;;;3.33;;
679;SDS011;322;48.846;9.230;2023-04-03T08:53:14;5.57;;;2.93;;
679;SDS011;322;48.846;9.230;2023-04-03T08:55:43;6.90;;;3.30;;
679;SDS011;322;48.846;9.230;2023-04-03T08:58:13;4.53;;;4.23;;
679;SDS011;322;48.846;9.230;2023-04-03T09:00:43;4.40;;;3.10;;
679;SDS011;322;48.846;9.230;2023-04-03T09:03:12;3.73;;;2.47;;
679;SDS011;322;48.846;9.230;2023-04-03T09:05:41;6.50;;;2.57;;
679;SDS011;322;48.846;9.230;2023-04-03T09:08:14;2.40;;;2.20;;
679;SDS011;322;48.846;9.230;2023-04-03T09:10:47;3.83;;;2.70;;
679;SDS011;322;48.846;9.230;2023-04-03T09:13:21;4.40;;;2.97;;
679;SDS011;322;48.846;9.230;2023-04-03T09:15:53;4.30;;;2.50;;
679;SDS011;322;48.846;9.230;2023-04-03T09:18:21;6.20;;;3.07;;
679;SDS011;322;48.846;9.230;2023-04-03T09:20:56;2.60;;;2.40;;
679;SDS011;322;48.846;9.230;2023-04-03T09:23:30;3.00;;;2.70;;
679;SDS011;322;48.846;9.230;2023-04-03T09:26:01;5.07;;;2.80;;
679;SDS011;322;48.846;9.230;2023-04-03T09:28:34;4.60;;;2.77;;
679;SDS011;322;48.846;9.230;2023-04-03T09:31:05;3.10;;;2.57;;
679;SDS011;322;48.846;9.230;2023-04-03T09:33:44;4.13;;;2.47;;
679;SDS011;322;48.846;9.230;2023-04-03T09:36:12;2.60;;;2.40;;
679;SDS011;322;48.846;9.230;2023-04-03T09:38:38;3.53;;;2.47;;
679;SDS011;322;48.846;9.230;2023-04-03T09:41:06;3.13;;;2.70;;
679;SDS011;322;48.846;9.230;2023-04-03T09:43:41;2.80;;;2.60;;
679;SDS011;322;48.846;9.230;2023-04-03T09:46:24;5.00;;;2.50;;
679;SDS011;322;48.846;9.230;2023-04-03T09:48:56;2.90;;;2.53;;
679;SDS011;322;48.846;9.230;2023-04-03T09:51:25;3.73;;;2.60;;
679;SDS011;322;48.846;9.230;2023-04-03T09:53:53;5.97;;;2.60;;
679;SDS011;322;48.846;9.230;2023-04-03T09:56:22;2.40;;;2.20;;
679;SDS011;322;48.846;9.230;2023-04-03T09:59:02;3.47;;;2.70;;
679;SDS011;322;48.846;9.230;2023-04-03T10:01:35;3.70;;;2.50;;
679;SDS011;322;48.846;9.230;2023-04-03T10:04:05;4.97;;;2.57;;
679;SDS011;322;48.846;9.230;2023-04-03T10:06:37;2.80;;;2.30;;
679;SDS011;322;48.846;9.230;2023-04-03T10:09:15;4.10;;;2.60;;
679;SDS011;322;48.846;9.230;2023-04-03T10:11:58;3.93;;;2.70;;
679;SDS011;322;48.846;9.230;2023-04-03T10:14:31;3.23;;;2.77;;
679;SDS011;322;48.846;9.230;2023-04-03T10:17:01;4.10;;;2.10;;
679;SDS011;322;48.846;9.230;2023-04-03T10:19:36;3.40;;;2.97;;
679;SDS011;322;48.846;9.230;2023-04-03T10:22:11;4.03;;;2.70;;
679;SDS011;322;48.846;9.230;2023-04-03T10:24:44;3.57;;;2.50;;
679;SDS011;322;48.846;9.230;2023-04-03T10:27:18;2.97;;;2.23;;
679;SDS011;322;48.846;9.230;2023-04-03T10:29:55;4.90;;;3.00;;
679;SDS011;322;48.846;9.230;2023-04-03T10:35:16;3.30;;;2.30;;
679;SDS011;322;48.846;9.230;2023-04-03T10:37:54;2.57;;;2.27;;
679;SDS011;322;48.846;9.230;2023-04-03T10:40:29;4.90;;;2.70;;
679;SDS011;322;48.846;9.230;2023-04-03T10:43:02;4.07;;;3.67;;
679;SDS011;322;48.846;9.230;2023-04-03T10:45:42;4.93;;;2.60;;
679;SDS011;322;48.846;9.230;2023-04-03T10:48:17;4.27;;;2.60;;
679;SDS011;322;48.846;9.230;2023-04-03T10:50:57;3.07;;;2.07;;
679;SDS011;322;48.846;9.230;2023-04-03T10:53:31;2.43;;;2.10;;
679;SDS011;322;48.846;9.230;2023-04-03T10:56:07;2.40;;;1.83;;
679;SDS011;322;48.846;9.230;2023-04-03T10:58:43;2.97;;;2.00;;
679;SDS011;322;48.846;9.230;2023-04-03T11:01:13;5.63;;;2.23;;
679;SDS011;322;48.846;9.230;2023-04-03T11:03:43;1.67;;;1.50;;
679;SDS011;322;48.846;9.230;2023-04-03T11:06:13;3.03;;;1.70;;
679;SDS011;322;48.846;9.230;2023-04-03T11:08:43;1.70;;;1.60;;
679;SDS011;322;48.846;9.230;2023-04-03T11:11:13;3.03;;;2.00;;
679;SDS011;322;48.846;9.230;2023-04-03T11:13:43;5.00;;;1.70;;
679;SDS011;322;48.846;9.230;2023-04-03T11:16:16;2.10;;;1.53;;
679;SDS011;322;48.846;9.230;2023-04-03T11:18:47;1.87;;;1.77;;
679;SDS011;322;48.846;9.230;2023-04-03T11:21:19;2.90;;;2.00;;
679;SDS011;322;48.846;9.230;2023-04-03T11:23:49;4.00;;;2.20;;
679;SDS011;322;48.846;9.230;2023-04-03T11:26:18;2.33;;;2.07;;
679;SDS011;322;48.846;9.230;2023-04-03T11:28:51;4.60;;;1.90;;
679;SDS011;322;48.846;9.230;2023-04-03T11:31:25;2.50;;;1.50;;
679;SDS011;322;48.846;9.230;2023-04-03T11:34:03;2.23;;;1.80;;
679;SDS011;322;48.846;9.230;2023-04-03T11:36:38;2.60;;;2.00;;
679;SDS011;322;48.846;9.230;2023-04-03T11:39:10;4.00;;;1.73;;
679;SDS011;322;48.846;9.230;2023-04-03T11:41:46;3.00;;;1.80;;
679;SDS011;322;48.846;9.230;2023-04-03T11:44:28;2.70;;;2.10;;
679;SDS011;322;48.846;9.230;2023-04-03T11:47:01;2.50;;;2.30;;
679;SDS011;322;48.846;9.230;2023-04-03T11:58:14;3.37;;;2.07;;
679;SDS011;322;48.846;9.230;2023-04-03T12:00:55;4.13;;;1.67;;
679;SDS011;322;48.846;9.230;2023-04-03T12:06:48;3.30;;;1.83;;
679;SDS011;322;48.846;9.230;2023-04-03T12:09:28;2.30;;;1.63;;
679;SDS011;322;48.846;9.230;2023-04-03T12:12:38;2.20;;;1.73;;
679;SDS011;322;48.846;9.230;2023-04-03T12:15:17;3.17;;;2.00;;
679;SDS011;322;48.846;9.230;2023-04-03T12:17:47;3.53;;;2.27;;
679;SDS011;322;48.846;9.230;2023-04-03T12:23:30;1.87;;;1.50;;
679;SDS011;322;48.846;9.230;2023-04-03T12:26:02;1.93;;;1.67;;
679;SDS011;322;48.846;9.230;2023-04-03T12:28:46;3.10;;;2.10;;
679;SDS011;322;48.846;9.230;2023-04-03T12:31:15;3.10;;;2.10;;
679;SDS011;322;48.846;9.230;2023-04-03T12:33:47;2.10;;;1.90;;
679;SDS011;322;48.846;9.230;2023-04-03T12:36:37;4.03;;;2.33;;
679;SDS011;322;48.846;9.230;2023-04-03T12:39:16;4.00;;;2.10;;
679;SDS011;322;48.846;9.230;2023-04-03T12:42:04;3.43;;;1.80;;
679;SDS011;322;48.846;9.230;2023-04-03T12:44:45;2.40;;;2.20;;
679;SDS011;322;48.846;9.230;2023-04-03T12:47:23;4.20;;;2.27;;
679;SDS011;322;48.846;9.230;2023-04-03T12:49:53;4.33;;;2.30;;
679;SDS011;322;48.846;9.230;2023-04-03T12:52:26;3.93;;;2.20;;
679;SDS011;322;48.846;9.230;2023-04-03T12:54:59;3.93;;;1.80;;
679;SDS011;322;48.846;9.230;2023-04-03T12:57:29;3.33;;;2.00;;
679;SDS011;322;48.846;9.230;2023-04-03T12:59:57;3.70;;;2.27;;
679;SDS011;322;48.846;9.230;2023-04-03T13:02:25;3.40;;;2.20;;
679;SDS011;322;48.846;9.230;2023-04-03T13:04:55;2.60;;;2.23;;
679;SDS011;322;48.846;9.230;2023-04-03T13:07:25;4.03;;;1.90;;
679;SDS011;322;48.846;9.230;2023-04-03T13:10:03;3.50;;;2.30;;
679;SDS011;322;48.846;9.230;2023-04-03T13:12:45;4.80;;;2.20;;
679;SDS011;322;48.846;9.230;2023-04-03T13:15:14;2.47;;;1.90;;
679;SDS011;322;48.846;9.230;2023-04-03T13:17:43;5.00;;;1.80;;
679;SDS011;322;48.846;9.230;2023-04-03T13:20:15;3.20;;;2.43;;
679;SDS011;322;48.846;9.230;2023-04-03T13:22:48;2.43;;;1.97;;
679;SDS011;322;48.846;9.230;2023-04-03T13:25:23;2.90;;;1.73;;
679;SDS011;322;48.846;9.230;2023-04-03T13:27:51;3.70;;;2.10;;
679;SDS011;322;48.846;9.230;2023-04-03T13:30:20;3.07;;;1.87;;
679;SDS011;322;48.846;9.230;2023-04-03T13:32:50;4.80;;;2.60;;
679;SDS011;322;48.846;9.230;2023-04-03T13:35:25;3.30;;;2.27;;
679;SDS011;322;48.846;9.230;2023-04-03T13:38:00;2.00;;;1.60;;
679;SDS011;322;48.846;9.230;2023-04-03T13:40:30;2.53;;;2.00;;
679;SDS011;322;48.846;9.230;2023-04-03T13:43:01;3.60;;;1.70;;
679;SDS011;322;48.846;9.230;2023-04-03T13:45:30;2.27;;;1.80;;
679;SDS011;322;48.846;9.230;2023-04-03T13:48:08;3.30;;;2.07;;
679;SDS011;322;48.846;9.230;2023-04-03T13:50:50;2.77;;;2.03;;
679;SDS011;322;48.846;9.230;2023-04-03T13:53:26;2.07;;;1.90;;
679;SDS011;322;48.846;9.230;2023-04-03T13:55:58;3.97;;;2.43;;
679;SDS011;322;48.846;9.230;2023-04-03T13:58:36;1.83;;;1.63;;
679;SDS011;322;48.846;9.230;2023-04-03T14:01:08;2.23;;;2.03;;
679;SDS011;322;48.846;9.230;2023-04-03T14:03:40;2.83;;;2.30;;
679;SDS011;322;48.846;9.230;2023-04-03T14:06:10;2.50;;;2.30;;
679;SDS011;322;48.846;9.230;2023-04-03T14:08:41;4.07;;;2.13;;
679;SDS011;322;48.846;9.230;2023-04-03T14:11:16;2.30;;;2.10;;
679;SDS011;322;48.846;9.230;2023-04-03T14:13:46;4.33;;;1.90;;
679;SDS011;322;48.846;9.230;2023-04-03T14:16:20;2.80;;;2.00;;
679;SDS011;322;48.846;9.230;2023-04-03T14:18:48;2.67;;;2.00;;
679;SDS011;322;48.846;9.230;2023-04-03T14:21:16;2.80;;;2.27;;
679;SDS011;322;48.846;9.230;2023-04-03T14:23:46;3.60;;;1.90;;
679;SDS011;322;48.846;9.230;2023-04-03T14:26:14;2.77;;;2.33;;
679;SDS011;322;48.846;9.230;2023-04-03T14:28:45;4.10;;;2.63;;
679;SDS011;322;48.846;9.230;2023-04-03T14:31:14;2.60;;;1.60;;
679;SDS011;322;48.846;9.230;2023-04-03T14:33:42;3.17;;;2.03;;
679;SDS011;322;48.846;9.230;2023-04-03T14:36:11;2.43;;;2.20;;
679;SDS011;322;48.846;9.230;2023-04-03T14:38:40;2.57;;;2.00;;
679;SDS011;322;48.846;9.230;2023-04-03T14:41:07;2.57;;;2.33;;
679;SDS011;322;48.846;9.230;2023-04-03T14:43:38;2.10;;;1.90;;
679;SDS011;322;48.846;9.230;2023-04-03T14:46:05;2.07;;;1.87;;
679;SDS011;322;48.846;9.230;2023-04-03T14:48:38;2.03;;;1.80;;
679;SDS011;322;48.846;9.230;2023-04-03T14:51:05;3.90;;;1.90;;
679;SDS011;322;48.846;9.230;2023-04-03T14:53:32;3.77;;;1.90;;
679;SDS011;322;48.846;9.230;2023-04-03T14:55:59;3.00;;;1.80;;
679;SDS011;322;48.846;9.230;2023-04-03T14:58:27;2.23;;;1.80;;
679;SDS011;322;48.846;9.230;2023-04-03T15:00:55;2.50;;;1.80;;
679;SDS011;322;48.846;9.230;2023-04-03T15:03:22;3.10;;;2.27;;
679;SDS011;322;48.846;9.230;2023-04-03T15:05:49;4.77;;;1.93;;
679;SDS011;322;48.846;9.230;2023-04-03T15:08:20;3.63;;;1.87;;
679;SDS011;322;48.846;9.230;2023-04-03T15:10:48;3.40;;;2.37;;
679;SDS011;322;48.846;9.230;2023-04-03T15:13:17;3.30;;;2.33;;
679;SDS011;322;48.846;9.230;2023-04-03T15:15:45;2.90;;;2.00;;
679;SDS011;322;48.846;9.230;2023-04-03T15:18:17;3.03;;;2.43;;
679;SDS011;322;48.846;9.230;2023-04-03T15:20:47;2.27;;;1.60;;
679;SDS011;322;48.846;9.230;2023-04-03T15:23:14;3.00;;;1.70;;
679;SDS011;322;48.846;9.230;2023-04-03T15:25:42;4.20;;;2.23;;
679;SDS011;322;48.846;9.230;2023-04-03T15:28:10;6.33;;;1.90;;
679;SDS011;322;48.846;9.230;2023-04-03T15:30:42;2.70;;;2.20;;
679;SDS011;322;48.846;9.230;2023-04-03T15:33:09;2.50;;;2.07;;
679;SDS011;322;48.846;9.230;2023-04-03T15:35:37;2.40;;;1.50;;
679;SDS011;322;48.846;9.230;2023-04-03T15:38:04;3.33;;;2.10;;
679;SDS011;322;48.846;9.230;2023-04-03T15:40:31;2.17;;;1.90;;
679;SDS011;322;48.846;9.230;2023-04-03T15:42:58;4.07;;;1.90;;
679;SDS011;322;48.846;9.230;2023-04-03T15:45:24;3.40;;;2.20;;
679;SDS011;322;48.846;9.230;2023-04-03T15:47:54;4.00;;;2.13;;
679;SDS011;322;48.846;9.230;2023-04-03T15:50:21;2.03;;;1.90;;
679;SDS011;322;48.846;9.230;2023-04-03T15:52:53;2.30;;;2.10;;
679;SDS011;322;48.846;9.230;2023-04-03T15:55:20;2.70;;;2.10;;
679;SDS011;322;48.846;9.230;2023-04-03T15:57:47;1.77;;;1.67;;
679;SDS011;322;48.846;9.230;2023-04-03T16:00:14;3.70;;;2.20;;
679;SDS011;322;48.846;9.230;2023-04-03T16:02:45;3.10;;;1.63;;
679;SDS011;322;48.846;9.230;2023-04-03T16:05:13;2.40;;;1.73;;
679;SDS011;322;48.846;9.230;2023-04-03T16:07:42;3.57;;;1.97;;
679;SDS011;322;48.846;9.230;2023-04-03T16:10:11;5.37;;;2.13;;
679;SDS011;322;48.846;9.230;2023-04-03T16:12:39;3.07;;;2.53;;
679;SDS011;322;48.846;9.230;2023-04-03T16:15:06;2.10;;;1.90;;
679;SDS011;322;48.846;9.230;2023-04-03T16:17:34;2.90;;;2.20;;
679;SDS011;322;48.846;9.230;2023-04-03T16:20:02;2.90;;;2.50;;